Pocomoke, Maryland
Current Conditions -  °F | °C
As of 8:54 AM on Monday 26 Jan 2015 (Local Time) from KWAL Reporting Station
Broken Clouds Broken Clouds  
Wind Chill: 34°   Ceiling: 11000
Heat Index: 42°   Visibility: 10mi
Dew Point: 39°   Wind: 18mph
Humidity: 89%   Direction: 60°ENE
Pressure: 29.74"   Gusts: NA
Location:  38.0556°N, 75.5253°W
Report Text: KWAL 261354Z AUTO 06016KT 10SM FEW065 BKN110 06/04 A2974 RMK AO2 SLP069 T00560039
Loading
Personal Weather Stations






























Interactive Weather Map New forecast layout! Learn more

10-Day Weather Forecast

Advertisements
Track Severe Weather on mobile